sensor_id;sensor_type;location;lat;lon;timestamp;P1;durP1;ratioP1;P2;durP2;ratioP2
18090;SDS011;9172;49.948;9.208;2023-03-01T00:01:21;15.60;;;6.67;;
18090;SDS011;9172;49.948;9.208;2023-03-01T00:03:51;14.67;;;7.20;;
18090;SDS011;9172;49.948;9.208;2023-03-01T00:06:21;17.63;;;7.13;;
18090;SDS011;9172;49.948;9.208;2023-03-01T00:08:51;14.93;;;7.37;;
18090;SDS011;9172;49.948;9.208;2023-03-01T00:11:21;12.53;;;6.43;;
18090;SDS011;9172;49.948;9.208;2023-03-01T00:13:52;14.57;;;7.03;;
18090;SDS011;9172;49.948;9.208;2023-03-01T00:16:23;12.40;;;6.83;;
18090;SDS011;9172;49.948;9.208;2023-03-01T00:18:53;15.93;;;7.67;;
18090;SDS011;9172;49.948;9.208;2023-03-01T00:21:24;13.97;;;7.23;;
18090;SDS011;9172;49.948;9.208;2023-03-01T00:23:54;13.00;;;7.50;;
18090;SDS011;9172;49.948;9.208;2023-03-01T00:26:24;12.80;;;7.10;;
18090;SDS011;9172;49.948;9.208;2023-03-01T00:28:53;21.57;;;8.30;;
18090;SDS011;9172;49.948;9.208;2023-03-01T00:31:24;14.67;;;7.70;;
18090;SDS011;9172;49.948;9.208;2023-03-01T00:33:56;13.37;;;7.13;;
18090;SDS011;9172;49.948;9.208;2023-03-01T00:36:26;16.23;;;7.70;;
18090;SDS011;9172;49.948;9.208;2023-03-01T00:38:58;14.33;;;7.13;;
18090;SDS011;9172;49.948;9.208;2023-03-01T00:41:28;11.07;;;6.37;;
18090;SDS011;9172;49.948;9.208;2023-03-01T00:44:00;13.83;;;6.93;;
18090;SDS011;9172;49.948;9.208;2023-03-01T00:46:28;15.77;;;7.63;;
18090;SDS011;9172;49.948;9.208;2023-03-01T00:48:59;14.07;;;7.03;;
18090;SDS011;9172;49.948;9.208;2023-03-01T00:51:28;13.37;;;7.37;;
18090;SDS011;9172;49.948;9.208;2023-03-01T00:53:59;14.20;;;7.07;;
18090;SDS011;9172;49.948;9.208;2023-03-01T00:56:29;13.13;;;7.23;;
18090;SDS011;9172;49.948;9.208;2023-03-01T00:58:59;12.57;;;6.90;;
18090;SDS011;9172;49.948;9.208;2023-03-01T01:01:29;13.73;;;7.53;;
18090;SDS011;9172;49.948;9.208;2023-03-01T01:04:00;14.13;;;7.33;;
18090;SDS011;9172;49.948;9.208;2023-03-01T01:06:30;14.07;;;7.40;;
18090;SDS011;9172;49.948;9.208;2023-03-01T01:09:02;18.00;;;8.07;;
18090;SDS011;9172;49.948;9.208;2023-03-01T01:11:33;12.87;;;7.40;;
18090;SDS011;9172;49.948;9.208;2023-03-01T01:14:03;18.43;;;7.50;;
18090;SDS011;9172;49.948;9.208;2023-03-01T01:16:32;12.93;;;7.53;;
18090;SDS011;9172;49.948;9.208;2023-03-01T01:19:02;16.23;;;8.03;;
18090;SDS011;9172;49.948;9.208;2023-03-01T01:21:31;16.57;;;7.57;;
18090;SDS011;9172;49.948;9.208;2023-03-01T01:24:08;13.50;;;7.03;;
18090;SDS011;9172;49.948;9.208;2023-03-01T01:26:37;14.00;;;7.70;;
18090;SDS011;9172;49.948;9.208;2023-03-01T01:29:05;18.47;;;8.20;;
18090;SDS011;9172;49.948;9.208;2023-03-01T01:31:35;14.17;;;7.30;;
18090;SDS011;9172;49.948;9.208;2023-03-01T01:34:06;18.80;;;7.80;;
18090;SDS011;9172;49.948;9.208;2023-03-01T01:36:39;13.53;;;7.60;;
18090;SDS011;9172;49.948;9.208;2023-03-01T01:39:08;11.87;;;6.57;;
18090;SDS011;9172;49.948;9.208;2023-03-01T01:41:39;14.27;;;6.97;;
18090;SDS011;9172;49.948;9.208;2023-03-01T01:44:10;15.73;;;7.67;;
18090;SDS011;9172;49.948;9.208;2023-03-01T01:46:41;17.37;;;7.30;;
18090;SDS011;9172;49.948;9.208;2023-03-01T01:49:17;15.47;;;7.70;;
18090;SDS011;9172;49.948;9.208;2023-03-01T01:51:49;15.10;;;7.83;;
18090;SDS011;9172;49.948;9.208;2023-03-01T01:54:21;16.23;;;8.20;;
18090;SDS011;9172;49.948;9.208;2023-03-01T01:56:52;17.50;;;7.73;;
18090;SDS011;9172;49.948;9.208;2023-03-01T01:59:24;18.53;;;8.47;;
18090;SDS011;9172;49.948;9.208;2023-03-01T02:01:54;13.57;;;7.03;;
18090;SDS011;9172;49.948;9.208;2023-03-01T02:04:25;14.40;;;7.43;;
18090;SDS011;9172;49.948;9.208;2023-03-01T02:06:54;13.57;;;7.90;;
18090;SDS011;9172;49.948;9.208;2023-03-01T02:09:25;16.83;;;7.67;;
18090;SDS011;9172;49.948;9.208;2023-03-01T02:12:03;15.00;;;7.63;;
18090;SDS011;9172;49.948;9.208;2023-03-01T02:14:33;17.77;;;8.20;;
18090;SDS011;9172;49.948;9.208;2023-03-01T02:17:03;16.77;;;8.37;;
18090;SDS011;9172;49.948;9.208;2023-03-01T02:19:34;16.63;;;8.20;;
18090;SDS011;9172;49.948;9.208;2023-03-01T02:22:10;16.77;;;7.90;;
18090;SDS011;9172;49.948;9.208;2023-03-01T02:24:44;14.00;;;7.27;;
18090;SDS011;9172;49.948;9.208;2023-03-01T02:27:16;14.07;;;7.33;;
18090;SDS011;9172;49.948;9.208;2023-03-01T02:29:48;18.97;;;7.93;;
18090;SDS011;9172;49.948;9.208;2023-03-01T02:32:16;18.03;;;7.83;;
18090;SDS011;9172;49.948;9.208;2023-03-01T02:34:48;18.43;;;8.27;;
18090;SDS011;9172;49.948;9.208;2023-03-01T02:37:18;15.07;;;8.23;;
18090;SDS011;9172;49.948;9.208;2023-03-01T02:39:50;18.63;;;8.50;;
18090;SDS011;9172;49.948;9.208;2023-03-01T02:42:25;20.53;;;8.87;;
18090;SDS011;9172;49.948;9.208;2023-03-01T02:44:55;18.87;;;7.93;;
18090;SDS011;9172;49.948;9.208;2023-03-01T02:47:24;13.83;;;7.67;;
18090;SDS011;9172;49.948;9.208;2023-03-01T02:49:52;14.30;;;8.10;;
18090;SDS011;9172;49.948;9.208;2023-03-01T02:52:27;15.00;;;6.60;;
18090;SDS011;9172;49.948;9.208;2023-03-01T02:55:01;18.00;;;8.80;;
18090;SDS011;9172;49.948;9.208;2023-03-01T02:57:33;14.53;;;7.80;;
18090;SDS011;9172;49.948;9.208;2023-03-01T03:00:04;17.73;;;7.73;;
18090;SDS011;9172;49.948;9.208;2023-03-01T03:02:35;15.70;;;7.47;;
18090;SDS011;9172;49.948;9.208;2023-03-01T03:05:07;18.10;;;8.73;;
18090;SDS011;9172;49.948;9.208;2023-03-01T03:07:38;16.37;;;8.17;;
18090;SDS011;9172;49.948;9.208;2023-03-01T03:10:10;13.43;;;7.57;;
18090;SDS011;9172;49.948;9.208;2023-03-01T03:12:41;16.67;;;8.30;;
18090;SDS011;9172;49.948;9.208;2023-03-01T03:15:10;18.50;;;9.00;;
18090;SDS011;9172;49.948;9.208;2023-03-01T03:17:40;14.73;;;7.47;;
18090;SDS011;9172;49.948;9.208;2023-03-01T03:20:11;13.40;;;7.83;;
18090;SDS011;9172;49.948;9.208;2023-03-01T03:22:44;20.30;;;8.37;;
18090;SDS011;9172;49.948;9.208;2023-03-01T03:25:13;14.77;;;7.73;;
18090;SDS011;9172;49.948;9.208;2023-03-01T03:27:42;13.83;;;7.20;;
18090;SDS011;9172;49.948;9.208;2023-03-01T03:30:14;18.17;;;7.50;;
18090;SDS011;9172;49.948;9.208;2023-03-01T03:32:45;15.17;;;7.27;;
18090;SDS011;9172;49.948;9.208;2023-03-01T03:35:18;15.97;;;7.43;;
18090;SDS011;9172;49.948;9.208;2023-03-01T03:37:50;14.43;;;7.90;;
18090;SDS011;9172;49.948;9.208;2023-03-01T03:40:29;13.93;;;7.37;;
18090;SDS011;9172;49.948;9.208;2023-03-01T03:42:59;17.23;;;8.07;;
18090;SDS011;9172;49.948;9.208;2023-03-01T03:45:28;16.80;;;7.43;;
18090;SDS011;9172;49.948;9.208;2023-03-01T03:47:59;18.00;;;8.63;;
18090;SDS011;9172;49.948;9.208;2023-03-01T03:50:28;14.47;;;7.53;;
18090;SDS011;9172;49.948;9.208;2023-03-01T03:52:57;16.20;;;8.07;;
18090;SDS011;9172;49.948;9.208;2023-03-01T03:55:30;14.73;;;7.57;;
18090;SDS011;9172;49.948;9.208;2023-03-01T03:58:00;17.13;;;8.63;;
18090;SDS011;9172;49.948;9.208;2023-03-01T04:00:33;15.13;;;7.50;;
18090;SDS011;9172;49.948;9.208;2023-03-01T04:03:02;17.33;;;8.40;;
18090;SDS011;9172;49.948;9.208;2023-03-01T04:05:31;20.80;;;8.77;;
18090;SDS011;9172;49.948;9.208;2023-03-01T04:08:00;17.53;;;8.00;;
18090;SDS011;9172;49.948;9.208;2023-03-01T04:10:30;16.63;;;8.87;;
18090;SDS011;9172;49.948;9.208;2023-03-01T04:13:00;19.17;;;8.53;;
18090;SDS011;9172;49.948;9.208;2023-03-01T04:15:30;18.93;;;8.77;;
18090;SDS011;9172;49.948;9.208;2023-03-01T04:18:00;17.27;;;8.17;;
18090;SDS011;9172;49.948;9.208;2023-03-01T04:20:30;16.23;;;8.00;;
18090;SDS011;9172;49.948;9.208;2023-03-01T04:23:01;15.13;;;7.57;;
18090;SDS011;9172;49.948;9.208;2023-03-01T04:25:37;13.87;;;7.57;;
18090;SDS011;9172;49.948;9.208;2023-03-01T04:28:07;15.70;;;8.60;;
18090;SDS011;9172;49.948;9.208;2023-03-01T04:30:36;14.23;;;7.23;;
18090;SDS011;9172;49.948;9.208;2023-03-01T04:33:06;16.27;;;8.63;;
18090;SDS011;9172;49.948;9.208;2023-03-01T04:35:37;19.17;;;8.63;;
18090;SDS011;9172;49.948;9.208;2023-03-01T04:38:06;15.50;;;7.90;;
18090;SDS011;9172;49.948;9.208;2023-03-01T04:40:36;18.13;;;7.60;;
18090;SDS011;9172;49.948;9.208;2023-03-01T04:43:04;18.07;;;7.70;;
18090;SDS011;9172;49.948;9.208;2023-03-01T04:45:33;16.67;;;7.80;;
18090;SDS011;9172;49.948;9.208;2023-03-01T04:48:02;15.00;;;7.50;;
18090;SDS011;9172;49.948;9.208;2023-03-01T04:50:31;15.00;;;8.20;;
18090;SDS011;9172;49.948;9.208;2023-03-01T04:53:00;19.03;;;8.20;;
18090;SDS011;9172;49.948;9.208;2023-03-01T04:55:29;17.13;;;8.70;;
18090;SDS011;9172;49.948;9.208;2023-03-01T04:57:58;17.23;;;8.23;;
18090;SDS011;9172;49.948;9.208;2023-03-01T05:00:27;16.27;;;8.07;;
18090;SDS011;9172;49.948;9.208;2023-03-01T05:02:56;17.17;;;8.47;;
18090;SDS011;9172;49.948;9.208;2023-03-01T05:05:27;15.50;;;7.60;;
18090;SDS011;9172;49.948;9.208;2023-03-01T05:07:59;16.90;;;7.97;;
18090;SDS011;9172;49.948;9.208;2023-03-01T05:10:29;13.83;;;7.43;;
18090;SDS011;9172;49.948;9.208;2023-03-01T05:12:59;16.00;;;7.73;;
18090;SDS011;9172;49.948;9.208;2023-03-01T05:15:29;17.70;;;8.67;;
18090;SDS011;9172;49.948;9.208;2023-03-01T05:17:59;14.23;;;7.50;;
18090;SDS011;9172;49.948;9.208;2023-03-01T05:20:28;15.93;;;7.77;;
18090;SDS011;9172;49.948;9.208;2023-03-01T05:22:58;16.37;;;7.70;;
18090;SDS011;9172;49.948;9.208;2023-03-01T05:25:29;18.97;;;7.87;;
18090;SDS011;9172;49.948;9.208;2023-03-01T05:27:59;20.07;;;9.43;;
18090;SDS011;9172;49.948;9.208;2023-03-01T05:30:30;19.60;;;8.83;;
18090;SDS011;9172;49.948;9.208;2023-03-01T05:32:59;15.27;;;8.47;;
18090;SDS011;9172;49.948;9.208;2023-03-01T05:35:29;15.23;;;8.07;;
18090;SDS011;9172;49.948;9.208;2023-03-01T05:38:00;18.07;;;7.70;;
18090;SDS011;9172;49.948;9.208;2023-03-01T05:40:29;15.23;;;7.70;;
18090;SDS011;9172;49.948;9.208;2023-03-01T05:43:00;14.63;;;7.70;;
18090;SDS011;9172;49.948;9.208;2023-03-01T05:45:31;15.60;;;7.70;;
18090;SDS011;9172;49.948;9.208;2023-03-01T05:48:03;14.20;;;8.00;;
18090;SDS011;9172;49.948;9.208;2023-03-01T05:50:33;13.13;;;7.27;;
18090;SDS011;9172;49.948;9.208;2023-03-01T05:53:04;14.67;;;7.47;;
18090;SDS011;9172;49.948;9.208;2023-03-01T05:55:36;14.50;;;6.57;;
18090;SDS011;9172;49.948;9.208;2023-03-01T05:58:10;19.00;;;7.37;;
18090;SDS011;9172;49.948;9.208;2023-03-01T06:00:40;21.13;;;7.63;;
18090;SDS011;9172;49.948;9.208;2023-03-01T06:03:10;13.80;;;6.97;;
18090;SDS011;9172;49.948;9.208;2023-03-01T06:05:42;17.73;;;8.43;;
18090;SDS011;9172;49.948;9.208;2023-03-01T06:08:11;15.73;;;7.40;;
18090;SDS011;9172;49.948;9.208;2023-03-01T06:10:39;17.90;;;8.20;;
18090;SDS011;9172;49.948;9.208;2023-03-01T06:13:08;15.30;;;7.57;;
18090;SDS011;9172;49.948;9.208;2023-03-01T06:15:37;13.70;;;7.47;;
18090;SDS011;9172;49.948;9.208;2023-03-01T06:18:05;16.80;;;7.93;;
18090;SDS011;9172;49.948;9.208;2023-03-01T06:20:35;14.63;;;7.13;;
18090;SDS011;9172;49.948;9.208;2023-03-01T06:23:05;16.03;;;8.00;;
18090;SDS011;9172;49.948;9.208;2023-03-01T06:25:35;17.67;;;8.90;;
18090;SDS011;9172;49.948;9.208;2023-03-01T06:28:04;15.40;;;7.80;;
18090;SDS011;9172;49.948;9.208;2023-03-01T06:30:33;16.60;;;8.57;;
18090;SDS011;9172;49.948;9.208;2023-03-01T06:33:03;15.77;;;7.70;;
18090;SDS011;9172;49.948;9.208;2023-03-01T06:35:31;15.47;;;8.27;;
18090;SDS011;9172;49.948;9.208;2023-03-01T06:38:01;15.47;;;8.33;;
18090;SDS011;9172;49.948;9.208;2023-03-01T06:40:30;18.97;;;8.10;;
18090;SDS011;9172;49.948;9.208;2023-03-01T06:43:01;19.73;;;8.00;;
18090;SDS011;9172;49.948;9.208;2023-03-01T06:45:30;16.70;;;8.23;;
18090;SDS011;9172;49.948;9.208;2023-03-01T06:48:01;12.37;;;6.97;;
18090;SDS011;9172;49.948;9.208;2023-03-01T06:50:31;15.20;;;7.77;;
18090;SDS011;9172;49.948;9.208;2023-03-01T06:53:01;14.33;;;7.90;;
18090;SDS011;9172;49.948;9.208;2023-03-01T06:55:30;16.87;;;7.87;;
18090;SDS011;9172;49.948;9.208;2023-03-01T06:58:01;15.50;;;7.63;;
18090;SDS011;9172;49.948;9.208;2023-03-01T07:00:30;15.63;;;7.90;;
18090;SDS011;9172;49.948;9.208;2023-03-01T07:03:01;15.87;;;8.60;;
18090;SDS011;9172;49.948;9.208;2023-03-01T07:05:30;15.50;;;6.90;;
18090;SDS011;9172;49.948;9.208;2023-03-01T07:08:01;17.07;;;8.43;;
18090;SDS011;9172;49.948;9.208;2023-03-01T07:10:29;15.13;;;8.17;;
18090;SDS011;9172;49.948;9.208;2023-03-01T07:12:58;14.07;;;7.47;;
18090;SDS011;9172;49.948;9.208;2023-03-01T07:15:27;14.60;;;8.03;;
18090;SDS011;9172;49.948;9.208;2023-03-01T07:17:56;16.47;;;7.77;;
18090;SDS011;9172;49.948;9.208;2023-03-01T07:20:26;18.70;;;8.53;;
18090;SDS011;9172;49.948;9.208;2023-03-01T07:22:55;13.90;;;7.80;;
18090;SDS011;9172;49.948;9.208;2023-03-01T07:25:24;18.43;;;8.27;;
18090;SDS011;9172;49.948;9.208;2023-03-01T07:27:53;15.80;;;8.10;;
18090;SDS011;9172;49.948;9.208;2023-03-01T07:30:22;16.60;;;8.23;;
18090;SDS011;9172;49.948;9.208;2023-03-01T07:32:52;13.83;;;7.50;;
18090;SDS011;9172;49.948;9.208;2023-03-01T07:35:20;16.90;;;8.07;;
18090;SDS011;9172;49.948;9.208;2023-03-01T07:37:49;19.10;;;8.80;;
18090;SDS011;9172;49.948;9.208;2023-03-01T07:40:19;15.40;;;7.93;;
18090;SDS011;9172;49.948;9.208;2023-03-01T07:42:48;20.07;;;8.23;;
18090;SDS011;9172;49.948;9.208;2023-03-01T07:45:17;15.87;;;8.57;;
18090;SDS011;9172;49.948;9.208;2023-03-01T07:47:46;17.13;;;8.80;;
18090;SDS011;9172;49.948;9.208;2023-03-01T07:50:14;19.97;;;9.37;;
18090;SDS011;9172;49.948;9.208;2023-03-01T07:52:45;16.50;;;8.03;;
18090;SDS011;9172;49.948;9.208;2023-03-01T07:55:14;20.57;;;8.43;;
18090;SDS011;9172;49.948;9.208;2023-03-01T07:57:44;20.20;;;9.40;;
18090;SDS011;9172;49.948;9.208;2023-03-01T08:00:15;15.47;;;7.77;;
18090;SDS011;9172;49.948;9.208;2023-03-01T08:02:45;17.03;;;8.70;;
18090;SDS011;9172;49.948;9.208;2023-03-01T08:05:14;12.83;;;7.83;;
18090;SDS011;9172;49.948;9.208;2023-03-01T08:07:43;14.27;;;7.67;;
18090;SDS011;9172;49.948;9.208;2023-03-01T08:10:12;16.30;;;8.37;;
18090;SDS011;9172;49.948;9.208;2023-03-01T08:12:40;12.80;;;7.27;;
18090;SDS011;9172;49.948;9.208;2023-03-01T08:15:10;18.60;;;8.47;;
18090;SDS011;9172;49.948;9.208;2023-03-01T08:17:39;17.87;;;8.00;;
18090;SDS011;9172;49.948;9.208;2023-03-01T08:20:10;14.43;;;7.90;;
18090;SDS011;9172;49.948;9.208;2023-03-01T08:22:39;21.43;;;8.80;;
18090;SDS011;9172;49.948;9.208;2023-03-01T08:25:08;18.07;;;8.53;;
18090;SDS011;9172;49.948;9.208;2023-03-01T08:27:37;16.33;;;8.33;;
18090;SDS011;9172;49.948;9.208;2023-03-01T08:30:07;16.70;;;7.27;;
18090;SDS011;9172;49.948;9.208;2023-03-01T08:32:38;14.03;;;7.77;;
18090;SDS011;9172;49.948;9.208;2023-03-01T08:35:07;16.83;;;8.63;;
18090;SDS011;9172;49.948;9.208;2023-03-01T08:37:37;19.60;;;8.47;;
18090;SDS011;9172;49.948;9.208;2023-03-01T08:40:07;16.73;;;8.20;;
18090;SDS011;9172;49.948;9.208;2023-03-01T08:42:39;16.67;;;7.90;;
18090;SDS011;9172;49.948;9.208;2023-03-01T08:45:10;14.60;;;8.00;;
18090;SDS011;9172;49.948;9.208;2023-03-01T08:47:42;15.57;;;8.60;;
18090;SDS011;9172;49.948;9.208;2023-03-01T08:50:11;15.30;;;8.30;;
18090;SDS011;9172;49.948;9.208;2023-03-01T08:52:40;15.07;;;8.37;;
18090;SDS011;9172;49.948;9.208;2023-03-01T08:55:10;18.10;;;8.93;;
18090;SDS011;9172;49.948;9.208;2023-03-01T08:57:39;17.00;;;8.77;;
18090;SDS011;9172;49.948;9.208;2023-03-01T09:00:09;19.70;;;8.73;;
18090;SDS011;9172;49.948;9.208;2023-03-01T09:02:41;15.00;;;8.33;;
18090;SDS011;9172;49.948;9.208;2023-03-01T09:05:10;17.63;;;8.30;;
18090;SDS011;9172;49.948;9.208;2023-03-01T09:07:39;29.80;;;9.97;;
18090;SDS011;9172;49.948;9.208;2023-03-01T09:10:09;14.50;;;8.33;;
18090;SDS011;9172;49.948;9.208;2023-03-01T09:12:39;15.07;;;8.30;;
18090;SDS011;9172;49.948;9.208;2023-03-01T09:15:09;18.70;;;8.83;;
18090;SDS011;9172;49.948;9.208;2023-03-01T09:17:38;18.80;;;9.07;;
18090;SDS011;9172;49.948;9.208;2023-03-01T09:20:07;15.77;;;7.93;;
18090;SDS011;9172;49.948;9.208;2023-03-01T09:22:37;15.40;;;8.27;;
18090;SDS011;9172;49.948;9.208;2023-03-01T09:25:06;16.10;;;8.33;;
18090;SDS011;9172;49.948;9.208;2023-03-01T09:27:35;16.93;;;9.07;;
18090;SDS011;9172;49.948;9.208;2023-03-01T09:30:06;15.20;;;8.50;;
18090;SDS011;9172;49.948;9.208;2023-03-01T09:32:36;15.17;;;8.17;;
18090;SDS011;9172;49.948;9.208;2023-03-01T09:35:08;20.07;;;8.83;;
18090;SDS011;9172;49.948;9.208;2023-03-01T09:37:37;11.90;;;7.47;;
18090;SDS011;9172;49.948;9.208;2023-03-01T09:40:11;13.73;;;7.77;;
18090;SDS011;9172;49.948;9.208;2023-03-01T09:42:54;14.53;;;7.50;;
18090;SDS011;9172;49.948;9.208;2023-03-01T09:45:33;15.47;;;8.03;;
18090;SDS011;9172;49.948;9.208;2023-03-01T09:48:03;15.87;;;8.27;;
18090;SDS011;9172;49.948;9.208;2023-03-01T09:50:34;13.97;;;7.57;;
18090;SDS011;9172;49.948;9.208;2023-03-01T09:53:05;17.43;;;8.97;;
18090;SDS011;9172;49.948;9.208;2023-03-01T09:55:38;14.93;;;7.70;;
18090;SDS011;9172;49.948;9.208;2023-03-01T09:58:19;14.40;;;7.30;;
18090;SDS011;9172;49.948;9.208;2023-03-01T10:00:55;17.73;;;8.40;;
18090;SDS011;9172;49.948;9.208;2023-03-01T10:03:27;14.77;;;7.57;;
18090;SDS011;9172;49.948;9.208;2023-03-01T10:06:01;18.40;;;7.73;;
18090;SDS011;9172;49.948;9.208;2023-03-01T10:08:35;16.80;;;7.40;;
18090;SDS011;9172;49.948;9.208;2023-03-01T10:11:15;21.67;;;8.40;;
18090;SDS011;9172;49.948;9.208;2023-03-01T10:13:47;16.13;;;8.63;;
18090;SDS011;9172;49.948;9.208;2023-03-01T10:16:21;14.87;;;7.60;;
18090;SDS011;9172;49.948;9.208;2023-03-01T10:18:53;12.87;;;7.03;;
18090;SDS011;9172;49.948;9.208;2023-03-01T10:21:25;12.60;;;7.40;;
18090;SDS011;9172;49.948;9.208;2023-03-01T10:23:58;14.40;;;7.80;;
18090;SDS011;9172;49.948;9.208;2023-03-01T10:26:35;16.13;;;7.97;;
18090;SDS011;9172;49.948;9.208;2023-03-01T10:29:09;18.07;;;8.53;;
18090;SDS011;9172;49.948;9.208;2023-03-01T10:31:40;12.73;;;7.40;;
18090;SDS011;9172;49.948;9.208;2023-03-01T10:34:13;14.27;;;8.17;;
18090;SDS011;9172;49.948;9.208;2023-03-01T10:36:44;13.60;;;7.83;;
18090;SDS011;9172;49.948;9.208;2023-03-01T10:39:16;17.07;;;8.80;;
18090;SDS011;9172;49.948;9.208;2023-03-01T10:41:54;12.23;;;6.77;;
18090;SDS011;9172;49.948;9.208;2023-03-01T10:44:38;13.03;;;6.57;;
18090;SDS011;9172;49.948;9.208;2023-03-01T10:47:17;13.30;;;7.47;;
18090;SDS011;9172;49.948;9.208;2023-03-01T10:50:00;15.17;;;7.40;;
18090;SDS011;9172;49.948;9.208;2023-03-01T10:52:32;14.50;;;7.90;;
18090;SDS011;9172;49.948;9.208;2023-03-01T10:55:04;17.80;;;7.90;;
18090;SDS011;9172;49.948;9.208;2023-03-01T10:57:46;16.63;;;7.77;;
18090;SDS011;9172;49.948;9.208;2023-03-01T11:00:24;16.17;;;7.30;;
18090;SDS011;9172;49.948;9.208;2023-03-01T11:03:10;14.80;;;7.70;;
18090;SDS011;9172;49.948;9.208;2023-03-01T11:05:54;13.77;;;7.47;;
18090;SDS011;9172;49.948;9.208;2023-03-01T11:08:35;16.20;;;7.10;;
18090;SDS011;9172;49.948;9.208;2023-03-01T11:11:18;12.43;;;6.97;;
18090;SDS011;9172;49.948;9.208;2023-03-01T11:13:53;12.07;;;6.57;;
18090;SDS011;9172;49.948;9.208;2023-03-01T11:16:27;15.20;;;7.17;;
18090;SDS011;9172;49.948;9.208;2023-03-01T11:19:00;14.03;;;6.73;;
18090;SDS011;9172;49.948;9.208;2023-03-01T11:21:33;12.57;;;7.00;;
18090;SDS011;9172;49.948;9.208;2023-03-01T11:24:05;15.00;;;7.00;;
18090;SDS011;9172;49.948;9.208;2023-03-01T11:26:38;13.77;;;7.10;;
18090;SDS011;9172;49.948;9.208;2023-03-01T11:29:12;17.97;;;6.23;;
18090;SDS011;9172;49.948;9.208;2023-03-01T11:31:45;14.93;;;6.63;;
18090;SDS011;9172;49.948;9.208;2023-03-01T11:34:17;12.20;;;5.73;;
18090;SDS011;9172;49.948;9.208;2023-03-01T11:36:49;13.47;;;6.80;;
18090;SDS011;9172;49.948;9.208;2023-03-01T11:39:24;14.83;;;7.20;;
18090;SDS011;9172;49.948;9.208;2023-03-01T11:41:58;13.73;;;6.83;;
18090;SDS011;9172;49.948;9.208;2023-03-01T11:44:29;13.53;;;6.60;;
18090;SDS011;9172;49.948;9.208;2023-03-01T11:47:13;11.93;;;6.77;;
18090;SDS011;9172;49.948;9.208;2023-03-01T11:52:55;12.50;;;6.97;;
18090;SDS011;9172;49.948;9.208;2023-03-01T11:55:36;10.50;;;6.10;;
18090;SDS011;9172;49.948;9.208;2023-03-01T11:58:16;13.57;;;6.23;;
18090;SDS011;9172;49.948;9.208;2023-03-01T12:01:09;14.17;;;6.23;;
18090;SDS011;9172;49.948;9.208;2023-03-01T12:06:56;17.00;;;6.80;;
18090;SDS011;9172;49.948;9.208;2023-03-01T12:09:31;14.80;;;6.17;;
18090;SDS011;9172;49.948;9.208;2023-03-01T12:12:13;12.30;;;6.30;;
18090;SDS011;9172;49.948;9.208;2023-03-01T12:14:50;12.83;;;6.73;;
18090;SDS011;9172;49.948;9.208;2023-03-01T12:17:31;11.77;;;6.87;;
18090;SDS011;9172;49.948;9.208;2023-03-01T12:20:19;15.13;;;6.50;;
18090;SDS011;9172;49.948;9.208;2023-03-01T12:23:14;11.37;;;5.97;;
18090;SDS011;9172;49.948;9.208;2023-03-01T12:25:46;13.00;;;6.93;;
18090;SDS011;9172;49.948;9.208;2023-03-01T12:28:39;9.90;;;5.87;;
18090;SDS011;9172;49.948;9.208;2023-03-01T12:34:09;12.33;;;6.27;;
18090;SDS011;9172;49.948;9.208;2023-03-01T12:36:49;14.13;;;6.40;;
18090;SDS011;9172;49.948;9.208;2023-03-01T12:39:26;11.57;;;6.23;;
18090;SDS011;9172;49.948;9.208;2023-03-01T12:42:02;16.90;;;6.40;;
18090;SDS011;9172;49.948;9.208;2023-03-01T12:44:38;14.57;;;6.97;;
18090;SDS011;9172;49.948;9.208;2023-03-01T12:47:26;12.93;;;5.67;;
18090;SDS011;9172;49.948;9.208;2023-03-01T12:50:01;18.40;;;6.53;;
18090;SDS011;9172;49.948;9.208;2023-03-01T12:52:35;11.63;;;6.07;;
18090;SDS011;9172;49.948;9.208;2023-03-01T12:55:07;10.23;;;5.60;;
18090;SDS011;9172;49.948;9.208;2023-03-01T12:57:38;13.70;;;6.17;;
18090;SDS011;9172;49.948;9.208;2023-03-01T13:00:15;11.63;;;5.83;;
18090;SDS011;9172;49.948;9.208;2023-03-01T13:02:48;12.37;;;5.93;;
18090;SDS011;9172;49.948;9.208;2023-03-01T13:05:29;11.13;;;6.07;;
18090;SDS011;9172;49.948;9.208;2023-03-01T13:08:02;10.63;;;5.93;;
18090;SDS011;9172;49.948;9.208;2023-03-01T13:10:38;15.50;;;6.00;;
18090;SDS011;9172;49.948;9.208;2023-03-01T13:13:13;11.27;;;5.57;;
18090;SDS011;9172;49.948;9.208;2023-03-01T13:18:32;10.87;;;5.90;;
18090;SDS011;9172;49.948;9.208;2023-03-01T13:23:37;12.07;;;5.77;;
18090;SDS011;9172;49.948;9.208;2023-03-01T13:26:12;9.83;;;5.43;;
18090;SDS011;9172;49.948;9.208;2023-03-01T13:28:49;10.57;;;5.87;;
18090;SDS011;9172;49.948;9.208;2023-03-01T13:34:39;9.70;;;5.37;;
18090;SDS011;9172;49.948;9.208;2023-03-01T13:37:20;10.63;;;5.37;;
18090;SDS011;9172;49.948;9.208;2023-03-01T13:42:42;13.90;;;5.93;;
18090;SDS011;9172;49.948;9.208;2023-03-01T13:45:16;11.23;;;5.63;;
18090;SDS011;9172;49.948;9.208;2023-03-01T13:47:50;12.47;;;5.77;;
18090;SDS011;9172;49.948;9.208;2023-03-01T13:50:24;10.00;;;5.90;;
18090;SDS011;9172;49.948;9.208;2023-03-01T13:52:56;12.17;;;5.27;;
18090;SDS011;9172;49.948;9.208;2023-03-01T13:55:29;13.37;;;5.87;;
18090;SDS011;9172;49.948;9.208;2023-03-01T13:58:05;10.27;;;5.73;;
18090;SDS011;9172;49.948;9.208;2023-03-01T14:00:42;8.60;;;4.83;;
18090;SDS011;9172;49.948;9.208;2023-03-01T14:03:13;9.63;;;5.60;;
18090;SDS011;9172;49.948;9.208;2023-03-01T14:11:10;10.17;;;5.43;;
18090;SDS011;9172;49.948;9.208;2023-03-01T14:14:16;11.90;;;5.17;;
18090;SDS011;9172;49.948;9.208;2023-03-01T14:17:05;10.03;;;5.20;;
18090;SDS011;9172;49.948;9.208;2023-03-01T14:19:41;12.07;;;5.70;;
18090;SDS011;9172;49.948;9.208;2023-03-01T14:22:15;10.60;;;5.23;;
18090;SDS011;9172;49.948;9.208;2023-03-01T14:24:47;10.50;;;5.40;;
18090;SDS011;9172;49.948;9.208;2023-03-01T14:27:18;9.07;;;5.20;;
18090;SDS011;9172;49.948;9.208;2023-03-01T14:29:54;7.63;;;4.17;;
18090;SDS011;9172;49.948;9.208;2023-03-01T14:32:25;9.47;;;4.77;;
18090;SDS011;9172;49.948;9.208;2023-03-01T14:34:55;9.80;;;5.37;;
18090;SDS011;9172;49.948;9.208;2023-03-01T14:37:26;11.90;;;5.63;;
18090;SDS011;9172;49.948;9.208;2023-03-01T14:39:56;8.20;;;4.77;;
18090;SDS011;9172;49.948;9.208;2023-03-01T14:42:27;9.10;;;4.80;;
18090;SDS011;9172;49.948;9.208;2023-03-01T14:44:58;7.50;;;4.70;;
18090;SDS011;9172;49.948;9.208;2023-03-01T14:47:31;10.07;;;4.80;;
18090;SDS011;9172;49.948;9.208;2023-03-01T14:50:02;8.87;;;4.57;;
18090;SDS011;9172;49.948;9.208;2023-03-01T14:52:34;8.90;;;4.70;;
18090;SDS011;9172;49.948;9.208;2023-03-01T14:55:07;12.33;;;4.77;;
18090;SDS011;9172;49.948;9.208;2023-03-01T14:57:48;10.70;;;5.37;;
18090;SDS011;9172;49.948;9.208;2023-03-01T15:00:20;9.33;;;4.97;;
18090;SDS011;9172;49.948;9.208;2023-03-01T15:02:50;13.90;;;5.60;;
18090;SDS011;9172;49.948;9.208;2023-03-01T15:05:23;7.93;;;4.60;;
18090;SDS011;9172;49.948;9.208;2023-03-01T15:07:54;7.40;;;4.23;;
18090;SDS011;9172;49.948;9.208;2023-03-01T15:10:25;9.00;;;4.60;;
18090;SDS011;9172;49.948;9.208;2023-03-01T15:12:56;9.30;;;4.63;;
18090;SDS011;9172;49.948;9.208;2023-03-01T15:15:33;9.30;;;4.90;;
18090;SDS011;9172;49.948;9.208;2023-03-01T15:18:03;7.93;;;3.80;;
18090;SDS011;9172;49.948;9.208;2023-03-01T15:20:40;12.53;;;4.30;;
18090;SDS011;9172;49.948;9.208;2023-03-01T15:23:19;13.30;;;4.53;;
18090;SDS011;9172;49.948;9.208;2023-03-01T15:25:50;6.80;;;3.70;;
18090;SDS011;9172;49.948;9.208;2023-03-01T15:28:23;11.30;;;4.37;;
18090;SDS011;9172;49.948;9.208;2023-03-01T15:30:58;11.10;;;4.10;;
18090;SDS011;9172;49.948;9.208;2023-03-01T15:33:31;7.60;;;3.73;;
18090;SDS011;9172;49.948;9.208;2023-03-01T15:36:02;9.60;;;4.33;;
18090;SDS011;9172;49.948;9.208;2023-03-01T15:38:34;9.20;;;4.43;;
18090;SDS011;9172;49.948;9.208;2023-03-01T15:41:21;7.10;;;3.57;;
18090;SDS011;9172;49.948;9.208;2023-03-01T15:43:51;11.10;;;3.87;;